createdAt,value
2016-08-20T00:00:45.789Z,0.00
2016-08-20T00:01:46.308Z,0.00
2016-08-20T00:02:46.824Z,0.00
2016-08-20T00:03:47.371Z,0.00
2016-08-20T00:04:47.908Z,0.00
2016-08-20T00:05:48.597Z,0.00
2016-08-20T00:06:48.986Z,0.00
2016-08-20T00:07:49.529Z,0.00
2016-08-20T00:08:50.370Z,0.00
2016-08-20T00:09:50.616Z,0.00
2016-08-20T00:10:51.164Z,0.00
2016-08-20T00:11:51.704Z,0.00
2016-08-20T00:12:52.244Z,0.00
2016-08-20T00:13:52.816Z,0.00
2016-08-20T00:14:53.333Z,0.00
2016-08-20T00:15:53.869Z,0.00
2016-08-20T00:16:54.410Z,0.00
2016-08-20T00:17:54.946Z,0.00
2016-08-20T00:18:55.522Z,0.00
2016-08-20T00:19:56.029Z,0.00
2016-08-20T00:20:56.569Z,0.00
2016-08-20T00:21:57.111Z,0.00
2016-08-20T00:22:57.800Z,0.00
2016-08-20T00:23:58.189Z,0.00
2016-08-20T00:24:58.879Z,0.00
2016-08-20T00:25:59.424Z,0.00
2016-08-20T00:26:59.813Z,0.00
2016-08-20T00:28:00.378Z,0.00
2016-08-20T00:29:00.892Z,0.00
2016-08-20T00:30:01.437Z,0.00
2016-08-20T00:31:01.973Z,0.00
2016-08-20T00:32:03.418Z,0.00
2016-08-20T00:33:03.208Z,0.00
2016-08-20T00:34:03.598Z,0.00
2016-08-20T00:35:04.138Z,0.00
2016-08-20T00:36:04.677Z,0.00
2016-08-20T00:37:05.216Z,0.00
2016-08-20T00:38:06.512Z,0.00
2016-08-20T00:39:06.299Z,0.00
2016-08-20T00:40:06.835Z,0.00
2016-08-20T00:41:07.379Z,0.00
2016-08-20T00:42:07.918Z,0.00
2016-08-20T00:43:08.610Z,0.00
2016-08-20T00:44:09.009Z,0.00
2016-08-20T00:45:09.542Z,0.00
2016-08-20T00:46:10.085Z,0.00
2016-08-20T00:47:10.659Z,0.00
2016-08-20T00:48:11.173Z,0.00
2016-08-20T00:49:11.713Z,0.00
2016-08-20T00:50:12.286Z,0.00
2016-08-20T00:51:12.796Z,0.00
2016-08-20T00:52:13.338Z,0.00
2016-08-20T00:53:13.882Z,0.00
2016-08-20T00:54:14.421Z,0.00
2016-08-20T00:55:14.958Z,0.00
2016-08-20T00:56:15.498Z,0.00
2016-08-20T00:57:16.185Z,0.00
2016-08-20T00:58:16.576Z,0.00
2016-08-20T00:59:17.121Z,0.00
2016-08-20T01:00:17.654Z,0.00
2016-08-20T01:01:18.195Z,0.00
2016-08-20T01:02:18.732Z,0.00
2016-08-20T01:03:19.269Z,0.00
2016-08-20T01:04:19.812Z,0.00
2016-08-20T01:05:20.502Z,0.00
2016-08-20T01:06:20.899Z,0.00
2016-08-20T01:07:21.429Z,0.00
2016-08-20T01:08:21.974Z,0.00
2016-08-20T01:09:22.661Z,0.00
2016-08-20T01:10:23.051Z,0.00
2016-08-20T01:11:23.596Z,0.00
2016-08-20T01:12:24.133Z,0.00
2016-08-20T01:13:24.822Z,0.00
2016-08-20T01:14:25.209Z,0.00
2016-08-20T01:15:25.764Z,0.00
2016-08-20T01:16:26.295Z,0.00
2016-08-20T01:17:26.836Z,0.00
2016-08-20T01:18:27.372Z,0.00
2016-08-20T01:19:27.916Z,0.00
2016-08-20T01:20:30.100Z,0.00
2016-08-20T01:21:29.144Z,0.00
2016-08-20T01:22:29.535Z,0.00
2016-08-20T01:23:30.234Z,0.00
2016-08-20T01:24:30.619Z,0.00
2016-08-20T01:25:31.166Z,0.00
2016-08-20T01:26:31.703Z,0.00
2016-08-20T01:27:32.240Z,0.00
2016-08-20T01:28:32.786Z,0.00
2016-08-20T01:29:33.320Z,0.00
2016-08-20T01:30:33.863Z,0.00
2016-08-20T01:31:34.400Z,0.00
2016-08-20T01:32:34.951Z,0.00
2016-08-20T01:33:35.480Z,0.00
2016-08-20T01:34:36.170Z,0.00
2016-08-20T01:35:36.564Z,0.00
2016-08-20T01:36:37.100Z,0.00
2016-08-20T01:37:37.641Z,0.00
2016-08-20T01:38:38.183Z,0.00
2016-08-20T01:39:38.718Z,0.00
2016-08-20T01:40:39.269Z,0.00
2016-08-20T01:41:39.807Z,0.00
2016-08-20T01:42:40.486Z,0.00
2016-08-20T01:43:41.050Z,0.00
2016-08-20T01:44:41.568Z,0.00
2016-08-20T01:45:41.959Z,0.00
2016-08-20T01:46:42.503Z,0.00
2016-08-20T01:47:43.039Z,0.00
2016-08-20T01:48:43.578Z,0.00
2016-08-20T01:49:44.116Z,0.00
2016-08-20T01:50:45.558Z,0.00
2016-08-20T01:51:45.202Z,0.00
2016-08-20T01:52:45.884Z,0.00
2016-08-20T01:53:46.345Z,0.00
2016-08-20T01:54:46.821Z,0.00
2016-08-20T01:55:47.363Z,0.00
2016-08-20T01:56:47.903Z,0.00
2016-08-20T01:57:48.446Z,0.00
2016-08-20T01:58:48.987Z,0.00
2016-08-20T01:59:49.682Z,0.00
2016-08-20T02:00:50.403Z,0.00
2016-08-20T02:01:50.618Z,0.00
2016-08-20T02:02:51.155Z,0.00
2016-08-20T02:03:51.716Z,0.00
2016-08-20T02:04:52.235Z,0.00
2016-08-20T02:05:52.777Z,0.00
2016-08-20T02:06:53.315Z,0.00
2016-08-20T02:07:53.861Z,0.00
2016-08-20T02:08:54.393Z,0.00
2016-08-20T02:09:55.083Z,0.00
2016-08-20T02:10:55.471Z,0.00
2016-08-20T02:11:56.009Z,0.00
2016-08-20T02:12:56.550Z,0.00
2016-08-20T02:13:57.240Z,0.00
2016-08-20T02:14:57.629Z,0.00
2016-08-20T02:15:58.175Z,0.00
2016-08-20T02:16:58.715Z,0.00
2016-08-20T02:17:59.401Z,0.00
2016-08-20T02:18:59.793Z,0.00
2016-08-20T02:20:00.339Z,0.00
2016-08-20T02:21:00.874Z,0.00
2016-08-20T02:22:01.568Z,0.00
2016-08-20T02:23:01.961Z,0.00
2016-08-20T02:24:02.524Z,0.00
2016-08-20T02:25:03.063Z,0.00
2016-08-20T02:26:03.727Z,0.00
2016-08-20T02:27:04.265Z,0.00
2016-08-20T02:28:04.650Z,0.00
2016-08-20T02:29:05.216Z,0.00
2016-08-20T02:30:05.882Z,0.00
2016-08-20T02:31:06.272Z,0.00
2016-08-20T02:32:06.958Z,0.00
2016-08-20T02:33:07.384Z,0.00
2016-08-20T02:34:08.043Z,0.00
2016-08-20T02:35:08.582Z,0.00
2016-08-20T02:36:08.977Z,0.00
2016-08-20T02:37:09.527Z,0.00
2016-08-20T02:38:10.216Z,0.00
2016-08-20T02:39:10.603Z,0.00
2016-08-20T02:40:11.164Z,0.00
2016-08-20T02:41:11.691Z,0.00
2016-08-20T02:42:12.220Z,0.00
2016-08-20T02:43:12.920Z,0.00
2016-08-20T02:44:13.295Z,0.00
2016-08-20T02:45:13.839Z,0.00
2016-08-20T02:46:14.382Z,0.00
2016-08-20T02:47:14.916Z,0.00
2016-08-20T02:48:15.456Z,0.00
2016-08-20T02:49:15.992Z,0.00
2016-08-20T02:50:16.698Z,0.00
2016-08-20T02:51:17.226Z,0.00
2016-08-20T02:52:17.636Z,0.00
2016-08-20T02:53:18.153Z,0.00
2016-08-20T02:54:18.693Z,0.00
2016-08-20T02:55:19.229Z,0.00
2016-08-20T02:56:21.422Z,0.00
2016-08-20T02:57:20.463Z,0.00
2016-08-20T02:58:20.859Z,0.00
2016-08-20T02:59:21.547Z,0.00
2016-08-20T03:00:21.933Z,0.00
2016-08-20T03:01:22.471Z,0.00
2016-08-20T03:02:23.028Z,0.00
2016-08-20T03:03:23.549Z,0.00
2016-08-20T03:04:24.090Z,0.00
2016-08-20T03:05:24.629Z,0.00
2016-08-20T03:06:25.176Z,0.00
2016-08-20T03:07:25.710Z,0.00
2016-08-20T03:08:26.400Z,0.00
2016-08-20T03:09:26.788Z,0.00
2016-08-20T03:10:27.330Z,0.00
2016-08-20T03:11:27.875Z,0.00
2016-08-20T03:12:28.446Z,0.00
2016-08-20T03:13:28.957Z,0.00
2016-08-20T03:14:29.798Z,0.00
2016-08-20T03:15:30.041Z,0.00
2016-08-20T03:16:30.578Z,0.00
2016-08-20T03:17:31.120Z,0.00
2016-08-20T03:18:31.663Z,0.00
2016-08-20T03:19:32.202Z,0.00
2016-08-20T03:20:33.042Z,0.00
2016-08-20T03:21:33.285Z,0.00
2016-08-20T03:22:33.827Z,0.00
2016-08-20T03:23:34.365Z,0.00
2016-08-20T03:24:34.905Z,0.00
2016-08-20T03:25:35.441Z,0.00
2016-08-20T03:26:36.281Z,0.00
2016-08-20T03:27:36.519Z,0.00
2016-08-20T03:28:37.064Z,0.00
2016-08-20T03:29:37.602Z,0.00
2016-08-20T03:30:38.144Z,0.00
2016-08-20T03:31:38.684Z,0.00
2016-08-20T03:32:39.223Z,0.00
2016-08-20T03:33:39.917Z,0.00
2016-08-20T03:34:40.305Z,0.00
2016-08-20T03:35:40.839Z,0.00
2016-08-20T03:36:41.531Z,0.00
2016-08-20T03:37:42.076Z,0.00
2016-08-20T03:38:42.460Z,0.00
2016-08-20T03:39:43.030Z,0.00
2016-08-20T03:40:43.547Z,0.00
2016-08-20T03:41:44.088Z,0.00
2016-08-20T03:42:44.629Z,0.00
2016-08-20T03:43:45.167Z,0.00
2016-08-20T03:44:45.703Z,0.00
2016-08-20T03:45:46.390Z,0.00
2016-08-20T03:46:46.786Z,0.00
2016-08-20T03:47:47.325Z,0.00
2016-08-20T03:48:47.875Z,0.00
2016-08-20T03:49:48.568Z,0.00
2016-08-20T03:50:48.960Z,0.00
2016-08-20T03:51:49.499Z,0.00
2016-08-20T03:52:50.041Z,0.00
2016-08-20T03:53:50.573Z,0.00
2016-08-20T03:54:51.264Z,0.00
2016-08-20T03:55:51.675Z,0.00
2016-08-20T03:56:52.195Z,0.00
2016-08-20T03:57:52.883Z,0.00
2016-08-20T03:58:53.279Z,0.00
2016-08-20T03:59:53.812Z,0.00
2016-08-20T04:00:54.354Z,0.00
2016-08-20T04:01:55.191Z,0.00
2016-08-20T04:02:55.431Z,0.00
2016-08-20T04:03:55.971Z,0.00
2016-08-20T04:04:56.516Z,0.00
2016-08-20T04:05:57.049Z,0.00
2016-08-20T04:06:57.739Z,0.00
2016-08-20T04:07:58.277Z,0.00
2016-08-20T04:08:58.669Z,0.00
2016-08-20T04:09:59.210Z,0.00
2016-08-20T04:10:59.748Z,0.00
2016-08-20T04:12:00.443Z,0.00
2016-08-20T04:13:00.982Z,0.00
2016-08-20T04:14:03.013Z,0.00
2016-08-20T04:15:01.895Z,0.00
2016-08-20T04:16:02.445Z,0.00
2016-08-20T04:17:02.977Z,0.00
2016-08-20T04:18:03.515Z,0.00
2016-08-20T04:19:04.207Z,0.00
2016-08-20T04:20:04.597Z,0.00
2016-08-20T04:21:05.286Z,0.00
2016-08-20T04:22:05.823Z,0.00
2016-08-20T04:23:06.227Z,0.00
2016-08-20T04:24:06.916Z,0.00
2016-08-20T04:25:07.309Z,0.00
2016-08-20T04:26:07.849Z,0.00
2016-08-20T04:27:08.503Z,0.00
2016-08-20T04:28:09.085Z,0.00
2016-08-20T04:29:09.474Z,0.00
2016-08-20T04:30:11.066Z,0.00
2016-08-20T04:31:10.556Z,0.00
2016-08-20T04:32:11.099Z,0.00
2016-08-20T04:33:11.636Z,0.00
2016-08-20T04:34:12.170Z,0.00
2016-08-20T04:35:12.710Z,0.00
2016-08-20T04:36:13.257Z,0.00
2016-08-20T04:37:13.804Z,0.00
2016-08-20T04:38:14.331Z,0.00
2016-08-20T04:39:14.868Z,0.00
2016-08-20T04:40:15.412Z,0.00
2016-08-20T04:41:15.954Z,0.00
2016-08-20T04:42:16.513Z,0.00
2016-08-20T04:43:17.051Z,0.00
2016-08-20T04:44:17.570Z,0.00
2016-08-20T04:45:18.107Z,0.00
2016-08-20T04:46:18.659Z,0.00
2016-08-20T04:47:19.189Z,0.00
2016-08-20T04:48:19.730Z,0.00
2016-08-20T04:49:20.274Z,0.00
2016-08-20T04:50:20.816Z,0.00
2016-08-20T04:51:21.503Z,0.00
2016-08-20T04:52:21.892Z,1.00
2016-08-20T04:53:22.440Z,1.00
2016-08-20T04:54:22.974Z,1.00
2016-08-20T04:55:23.519Z,1.00
2016-08-20T04:56:24.054Z,1.00
2016-08-20T04:57:24.591Z,1.00
2016-08-20T04:58:25.283Z,1.00
2016-08-20T04:59:25.673Z,1.00
2016-08-20T05:00:27.114Z,2.00
2016-08-20T05:01:26.756Z,2.00
2016-08-20T05:02:27.306Z,2.00
2016-08-20T05:03:27.850Z,2.00
2016-08-20T05:04:28.391Z,2.00
2016-08-20T05:05:28.936Z,2.00
2016-08-20T05:06:29.623Z,2.00
2016-08-20T05:07:30.036Z,2.00
2016-08-20T05:08:30.556Z,2.00
2016-08-20T05:09:31.094Z,2.00
2016-08-20T05:10:31.635Z,2.00
2016-08-20T05:11:32.175Z,2.00
2016-08-20T05:12:32.716Z,2.00
2016-08-20T05:13:33.257Z,1.00
2016-08-20T05:14:33.798Z,1.00
2016-08-20T05:15:34.335Z,1.00
2016-08-20T05:16:34.881Z,1.00
2016-08-20T05:17:35.417Z,1.00
2016-08-20T05:18:35.951Z,1.00
2016-08-20T05:19:36.495Z,1.00
2016-08-20T05:20:37.032Z,1.00
2016-08-20T05:21:37.726Z,1.00
2016-08-20T05:22:38.262Z,1.00
2016-08-20T05:23:38.655Z,1.00
2016-08-20T05:24:39.193Z,1.00
2016-08-20T05:25:39.738Z,1.00
2016-08-20T05:26:40.281Z,1.00
2016-08-20T05:27:40.814Z,1.00
2016-08-20T05:28:41.355Z,1.00
2016-08-20T05:29:41.893Z,1.00
2016-08-20T05:30:42.437Z,1.00
2016-08-20T05:31:42.975Z,1.00
2016-08-20T05:32:43.516Z,1.00
2016-08-20T05:33:44.054Z,1.00
2016-08-20T05:34:44.597Z,1.00
2016-08-20T05:35:45.288Z,1.00
2016-08-20T05:36:45.683Z,1.00
2016-08-20T05:37:46.222Z,1.00
2016-08-20T05:38:46.799Z,1.00
2016-08-20T05:39:47.311Z,1.00
2016-08-20T05:40:47.853Z,1.00
2016-08-20T05:41:48.388Z,1.00
2016-08-20T05:42:49.074Z,1.00
2016-08-20T05:43:49.469Z,1.00
2016-08-20T05:44:50.009Z,1.00
2016-08-20T05:45:50.561Z,1.00
2016-08-20T05:46:51.088Z,1.00
2016-08-20T05:47:51.632Z,1.00
2016-08-20T05:48:52.310Z,1.00
2016-08-20T05:49:52.853Z,1.00
2016-08-20T05:50:53.390Z,1.00
2016-08-20T05:51:53.781Z,1.00
2016-08-20T05:52:54.318Z,2.00
2016-08-20T05:53:54.861Z,2.00
2016-08-20T05:54:55.549Z,2.00
2016-08-20T05:55:55.942Z,3.00
2016-08-20T05:56:56.480Z,3.00
2016-08-20T05:57:57.041Z,3.00
2016-08-20T05:58:57.709Z,3.00
2016-08-20T05:59:58.103Z,3.00
2016-08-20T06:00:58.640Z,3.00
2016-08-20T06:01:59.329Z,3.00
2016-08-20T06:02:59.724Z,3.00
2016-08-20T06:04:00.262Z,3.00
2016-08-20T06:05:00.812Z,4.00
2016-08-20T06:06:02.984Z,4.00
2016-08-20T06:07:01.875Z,4.00
2016-08-20T06:08:02.563Z,4.00
2016-08-20T06:09:02.952Z,3.00
2016-08-20T06:10:03.493Z,3.00
2016-08-20T06:11:04.031Z,3.00
2016-08-20T06:12:04.584Z,4.00
2016-08-20T06:13:05.116Z,4.00
2016-08-20T06:14:05.679Z,5.00
2016-08-20T06:15:06.204Z,6.00
2016-08-20T06:16:06.744Z,7.00
2016-08-20T06:17:07.436Z,8.00
2016-08-20T06:18:07.970Z,9.00
2016-08-20T06:19:08.508Z,10.00
2016-08-20T06:20:09.053Z,10.00
2016-08-20T06:21:09.438Z,11.00
2016-08-20T06:22:10.132Z,11.00
2016-08-20T06:23:10.533Z,10.00
2016-08-20T06:24:11.067Z,10.00
2016-08-20T06:25:11.598Z,10.00
2016-08-20T06:26:12.146Z,11.00
2016-08-20T06:27:12.682Z,12.00
2016-08-20T06:28:13.218Z,12.00
2016-08-20T06:29:13.761Z,12.00
2016-08-20T06:30:14.301Z,11.00
2016-08-20T06:31:15.008Z,12.00
2016-08-20T06:32:15.381Z,12.00
2016-08-20T06:33:15.922Z,13.00
2016-08-20T06:34:16.611Z,13.00
2016-08-20T06:35:17.002Z,14.00
2016-08-20T06:36:17.847Z,14.00
2016-08-20T06:37:18.079Z,13.00
2016-08-20T06:38:18.616Z,14.00
2016-08-20T06:39:19.159Z,12.00
2016-08-20T06:40:19.699Z,12.00
2016-08-20T06:41:20.240Z,12.00
2016-08-20T06:42:20.785Z,11.00
2016-08-20T06:43:21.467Z,11.00
2016-08-20T06:44:21.861Z,11.00
2016-08-20T06:45:22.545Z,11.00
2016-08-20T06:46:22.936Z,11.00
2016-08-20T06:47:23.471Z,11.00
2016-08-20T06:48:24.166Z,11.00
2016-08-20T06:49:24.708Z,11.00
2016-08-20T06:50:25.106Z,11.00
2016-08-20T06:51:25.645Z,11.00
2016-08-20T06:52:26.189Z,11.00
2016-08-20T06:53:26.872Z,10.00
2016-08-20T06:54:28.789Z,10.00
2016-08-20T06:55:27.800Z,10.00
2016-08-20T06:56:28.489Z,10.00
2016-08-20T06:57:29.064Z,9.00
2016-08-20T06:58:29.570Z,9.00
2016-08-20T06:59:29.954Z,9.00
2016-08-20T07:00:30.495Z,9.00
2016-08-20T07:01:31.033Z,10.00
2016-08-20T07:02:31.595Z,10.00
2016-08-20T07:03:32.112Z,10.00
2016-08-20T07:04:32.651Z,11.00
2016-08-20T07:05:33.345Z,11.00
2016-08-20T07:06:33.735Z,11.00
2016-08-20T07:07:34.268Z,11.00
2016-08-20T07:08:34.813Z,11.00
2016-08-20T07:09:35.352Z,11.00
2016-08-20T07:10:36.042Z,11.00
2016-08-20T07:11:36.435Z,11.00
2016-08-20T07:12:36.974Z,11.00
2016-08-20T07:13:37.539Z,12.00
2016-08-20T07:14:38.058Z,12.00
2016-08-20T07:15:38.588Z,12.00
2016-08-20T07:16:39.127Z,12.00
2016-08-20T07:17:39.666Z,12.00
2016-08-20T07:18:40.215Z,12.00
2016-08-20T07:19:40.747Z,13.00
2016-08-20T07:20:41.437Z,13.00
2016-08-20T07:21:41.825Z,13.00
2016-08-20T07:22:42.361Z,12.00
2016-08-20T07:23:42.905Z,11.00
2016-08-20T07:24:43.744Z,11.00
2016-08-20T07:25:43.985Z,11.00
2016-08-20T07:26:44.526Z,11.00
2016-08-20T07:27:45.074Z,11.00
2016-08-20T07:28:45.609Z,11.00
2016-08-20T07:29:46.302Z,11.00
2016-08-20T07:30:46.874Z,11.00
2016-08-20T07:31:47.236Z,11.00
2016-08-20T07:32:47.773Z,11.00
2016-08-20T07:33:48.313Z,11.00
2016-08-20T07:34:49.010Z,11.00
2016-08-20T07:35:49.394Z,12.00
2016-08-20T07:36:49.933Z,12.00
2016-08-20T07:37:50.631Z,12.00
2016-08-20T07:38:51.313Z,12.00
2016-08-20T07:39:51.567Z,13.00
2016-08-20T07:40:52.099Z,13.00
2016-08-20T07:41:52.632Z,14.00
2016-08-20T07:42:53.320Z,14.00
2016-08-20T07:43:53.707Z,15.00
2016-08-20T07:44:54.250Z,16.00
2016-08-20T07:45:54.788Z,16.00
2016-08-20T07:46:55.477Z,15.00
2016-08-20T07:47:56.038Z,14.00
2016-08-20T07:48:56.409Z,14.00
2016-08-20T07:49:56.972Z,15.00
2016-08-20T07:50:57.487Z,15.00
2016-08-20T07:51:58.024Z,15.00
2016-08-20T07:52:58.563Z,15.00
2016-08-20T07:53:59.254Z,16.00
2016-08-20T07:54:59.641Z,16.00
2016-08-20T07:56:00.185Z,16.00
2016-08-20T07:57:00.726Z,15.00
2016-08-20T07:58:01.267Z,15.00
2016-08-20T07:59:01.807Z,15.00
2016-08-20T08:00:02.493Z,14.00
2016-08-20T08:01:02.886Z,13.00
2016-08-20T08:02:03.428Z,13.00
2016-08-20T08:03:03.969Z,12.00
2016-08-20T08:04:04.515Z,12.00
2016-08-20T08:05:05.204Z,12.00
2016-08-20T08:06:05.594Z,12.00
2016-08-20T08:07:06.135Z,11.00
2016-08-20T08:08:06.670Z,11.00
2016-08-20T08:09:07.360Z,11.00
2016-08-20T08:10:07.901Z,12.00
2016-08-20T08:11:08.295Z,12.00
2016-08-20T08:12:08.844Z,12.00
2016-08-20T08:13:09.376Z,12.00
2016-08-20T08:14:09.911Z,12.00
2016-08-20T08:15:10.450Z,13.00
2016-08-20T08:16:11.141Z,14.00
2016-08-20T08:17:11.680Z,16.00
2016-08-20T08:18:12.073Z,17.00
2016-08-20T08:19:12.615Z,18.00
2016-08-20T08:20:13.178Z,18.00
2016-08-20T08:21:13.692Z,19.00
2016-08-20T08:22:14.232Z,19.00
2016-08-20T08:23:14.795Z,19.00
2016-08-20T08:24:15.307Z,19.00
2016-08-20T08:25:15.847Z,20.00
2016-08-20T08:26:16.384Z,20.00
2016-08-20T08:27:16.923Z,20.00
2016-08-20T08:28:17.459Z,19.00
2016-08-20T08:29:18.152Z,19.00
2016-08-20T08:30:18.538Z,19.00
2016-08-20T08:31:19.082Z,19.00
2016-08-20T08:32:19.624Z,18.00
2016-08-20T08:33:20.160Z,17.00
2016-08-20T08:34:20.699Z,16.00
2016-08-20T08:35:21.237Z,17.00
2016-08-20T08:36:21.777Z,17.00
2016-08-20T08:37:22.472Z,17.00
2016-08-20T08:38:22.865Z,17.00
2016-08-20T08:39:23.409Z,18.00
2016-08-20T08:40:23.948Z,19.00
2016-08-20T08:41:24.494Z,20.00
2016-08-20T08:42:25.037Z,21.00
2016-08-20T08:43:25.573Z,21.00
2016-08-20T08:44:26.130Z,20.00
2016-08-20T08:45:26.801Z,21.00
2016-08-20T08:46:27.195Z,21.00
2016-08-20T08:47:27.893Z,19.00
2016-08-20T08:48:28.306Z,18.00
2016-08-20T08:49:28.811Z,17.00
2016-08-20T08:50:29.497Z,17.00
2016-08-20T08:51:30.037Z,18.00
2016-08-20T08:52:30.428Z,18.00
2016-08-20T08:53:30.979Z,18.00
2016-08-20T08:54:31.660Z,18.00
2016-08-20T08:55:32.201Z,18.00
2016-08-20T08:56:32.595Z,18.00
2016-08-20T08:57:33.129Z,18.00
2016-08-20T08:58:33.703Z,18.00
2016-08-20T08:59:34.356Z,18.00
2016-08-20T09:00:34.743Z,18.00
2016-08-20T09:01:35.283Z,19.00
2016-08-20T09:02:35.823Z,20.00
2016-08-20T09:03:36.358Z,20.00
2016-08-20T09:04:36.900Z,19.00
2016-08-20T09:05:37.444Z,19.00
2016-08-20T09:06:37.982Z,20.00
2016-08-20T09:07:38.523Z,20.00
2016-08-20T09:08:39.059Z,21.00
2016-08-20T09:09:39.608Z,21.00
2016-08-20T09:10:40.137Z,21.00
2016-08-20T09:11:40.677Z,21.00
2016-08-20T09:12:41.217Z,22.00
2016-08-20T09:13:41.757Z,23.00
2016-08-20T09:14:42.300Z,23.00
2016-08-20T09:15:44.196Z,27.00
2016-08-20T09:16:43.423Z,37.00
2016-08-20T09:17:43.932Z,37.00
2016-08-20T09:18:44.485Z,24.00
2016-08-20T09:19:45.036Z,22.00
2016-08-20T09:20:45.697Z,21.00
2016-08-20T09:21:46.089Z,19.00
2016-08-20T09:22:46.779Z,19.00
2016-08-20T09:23:47.191Z,20.00
2016-08-20T09:24:47.858Z,22.00
2016-08-20T09:25:48.399Z,23.00
2016-08-20T09:26:48.816Z,25.00
2016-08-20T09:27:49.479Z,28.00
2016-08-20T09:28:49.869Z,28.00
2016-08-20T09:29:50.410Z,27.00
2016-08-20T09:30:50.948Z,29.00
2016-08-20T09:31:51.493Z,31.00
2016-08-20T09:32:52.031Z,30.00
2016-08-20T09:33:52.573Z,30.00
2016-08-20T09:34:53.118Z,31.00
2016-08-20T09:35:53.662Z,39.00
2016-08-20T09:36:54.206Z,39.00
2016-08-20T09:37:54.735Z,39.00
2016-08-20T09:38:55.273Z,40.00
2016-08-20T09:39:55.810Z,41.00
2016-08-20T09:40:56.501Z,41.00
2016-08-20T09:41:56.891Z,41.00
2016-08-20T09:42:58.350Z,35.00
2016-08-20T09:43:57.972Z,40.00
2016-08-20T09:44:58.513Z,39.00
2016-08-20T09:46:00.251Z,39.00
2016-08-20T09:46:59.589Z,38.00
2016-08-20T09:48:00.125Z,34.00
2016-08-20T09:49:00.667Z,32.00
2016-08-20T09:50:01.210Z,30.00
2016-08-20T09:51:01.752Z,30.00
2016-08-20T09:52:02.299Z,34.00
2016-08-20T09:53:02.841Z,38.00
2016-08-20T09:54:03.530Z,33.00
2016-08-20T09:55:03.927Z,34.00
2016-08-20T09:56:04.463Z,38.00
2016-08-20T09:57:05.001Z,34.00
2016-08-20T09:58:05.544Z,31.00
2016-08-20T09:59:06.082Z,27.00
2016-08-20T10:00:06.620Z,24.00
2016-08-20T10:01:07.189Z,22.00
2016-08-20T10:02:07.851Z,20.00
2016-08-20T10:03:08.261Z,18.00
2016-08-20T10:04:08.779Z,16.00
2016-08-20T10:05:09.465Z,14.00
2016-08-20T10:06:09.863Z,12.00
2016-08-20T10:07:10.400Z,11.00
2016-08-20T10:08:11.089Z,10.00
2016-08-20T10:09:11.479Z,9.00
2016-08-20T10:10:12.014Z,8.00
2016-08-20T10:11:12.558Z,7.00
2016-08-20T10:12:13.095Z,6.00
2016-08-20T10:13:13.635Z,6.00
2016-08-20T10:14:14.183Z,6.00
2016-08-20T10:15:14.725Z,6.00
2016-08-20T10:16:15.258Z,7.00
2016-08-20T10:17:15.797Z,7.00
2016-08-20T10:18:16.487Z,8.00
2016-08-20T10:19:16.913Z,8.00
2016-08-20T10:20:17.413Z,8.00
2016-08-20T10:21:17.958Z,8.00
2016-08-20T10:22:18.505Z,8.00
2016-08-20T10:23:19.045Z,7.00
2016-08-20T10:24:19.726Z,8.00
2016-08-20T10:25:20.115Z,9.00
2016-08-20T10:26:20.658Z,10.00
2016-08-20T10:27:21.350Z,12.00
2016-08-20T10:28:21.751Z,13.00
2016-08-20T10:29:22.287Z,14.00
2016-08-20T10:30:22.830Z,14.00
2016-08-20T10:31:23.373Z,14.00
2016-08-20T10:32:23.911Z,15.00
2016-08-20T10:33:24.603Z,15.00
2016-08-20T10:34:25.019Z,14.00
2016-08-20T10:35:25.682Z,14.00
2016-08-20T10:36:26.070Z,14.00
2016-08-20T10:37:26.760Z,13.00
2016-08-20T10:38:27.148Z,11.00
2016-08-20T10:39:27.687Z,10.00
2016-08-20T10:40:28.227Z,8.00
2016-08-20T10:41:28.915Z,7.00
2016-08-20T10:42:29.605Z,7.00
2016-08-20T10:43:29.993Z,6.00
2016-08-20T10:44:30.389Z,5.00
2016-08-20T10:45:30.923Z,5.00
2016-08-20T10:46:31.464Z,5.00
2016-08-20T10:47:32.001Z,6.00
2016-08-20T10:48:32.538Z,6.00
2016-08-20T10:49:33.082Z,6.00
2016-08-20T10:50:33.620Z,7.00
2016-08-20T10:51:34.158Z,7.00
2016-08-20T10:52:34.847Z,7.00
2016-08-20T10:53:35.268Z,6.00
2016-08-20T10:54:35.782Z,6.00
2016-08-20T10:55:36.326Z,5.00
2016-08-20T10:56:37.009Z,4.00
2016-08-20T10:57:37.402Z,4.00
2016-08-20T10:58:37.939Z,3.00
2016-08-20T10:59:38.477Z,3.00
2016-08-20T11:00:39.015Z,4.00
2016-08-20T11:01:39.701Z,4.00
2016-08-20T11:02:40.135Z,4.00
2016-08-20T11:03:40.641Z,4.00
2016-08-20T11:04:41.181Z,4.00
2016-08-20T11:05:41.726Z,4.00
2016-08-20T11:06:42.275Z,5.00
2016-08-20T11:07:42.812Z,5.00
2016-08-20T11:08:43.361Z,5.00
2016-08-20T11:09:43.888Z,5.00
2016-08-20T11:10:44.427Z,4.00
2016-08-20T11:11:44.972Z,4.00
2016-08-20T11:12:45.520Z,3.00
2016-08-20T11:13:46.047Z,3.00
2016-08-20T11:14:46.591Z,4.00
2016-08-20T11:15:47.272Z,5.00
2016-08-20T11:16:47.681Z,7.00
2016-08-20T11:17:48.204Z,9.00
2016-08-20T11:18:48.741Z,11.00
2016-08-20T11:19:50.936Z,13.00
2016-08-20T11:20:49.973Z,16.00
2016-08-20T11:21:50.390Z,18.00
2016-08-20T11:22:50.899Z,20.00
2016-08-20T11:23:51.587Z,23.00
2016-08-20T11:24:51.977Z,27.00
2016-08-20T11:25:52.518Z,29.00
2016-08-20T11:26:53.058Z,30.00
2016-08-20T11:27:53.616Z,31.00
2016-08-20T11:28:54.139Z,31.00
2016-08-20T11:29:54.678Z,32.00
2016-08-20T11:30:55.225Z,33.00
2016-08-20T11:31:55.786Z,40.00
2016-08-20T11:32:56.297Z,36.00
2016-08-20T11:33:56.835Z,45.00
2016-08-20T11:34:57.523Z,45.00
2016-08-20T11:35:59.413Z,45.00
2016-08-20T11:36:58.457Z,46.00
2016-08-20T11:37:58.987Z,47.00
2016-08-20T11:38:59.679Z,49.00
2016-08-20T11:40:00.371Z,51.00
2016-08-20T11:41:00.639Z,49.00
2016-08-20T11:42:01.155Z,46.00
2016-08-20T11:43:01.695Z,40.00
2016-08-20T11:44:02.238Z,34.00
2016-08-20T11:45:02.783Z,33.00
2016-08-20T11:46:03.471Z,31.00
2016-08-20T11:47:04.007Z,29.00
2016-08-20T11:48:04.562Z,25.00
2016-08-20T11:49:05.100Z,23.00
2016-08-20T11:50:05.479Z,22.00
2016-08-20T11:51:06.045Z,21.00
2016-08-20T11:52:06.568Z,22.00
2016-08-20T11:53:07.248Z,23.00
2016-08-20T11:54:07.634Z,25.00
2016-08-20T11:55:08.331Z,27.00
2016-08-20T11:56:08.867Z,30.00
2016-08-20T11:57:09.294Z,30.00
2016-08-20T11:58:09.797Z,28.00
2016-08-20T11:59:10.343Z,27.00
2016-08-20T12:00:10.877Z,27.00
2016-08-20T12:01:11.418Z,27.00
2016-08-20T12:02:11.956Z,27.00
2016-08-20T12:03:12.493Z,28.00
2016-08-20T12:04:13.034Z,30.00
2016-08-20T12:05:13.574Z,32.00
2016-08-20T12:06:14.112Z,33.00
2016-08-20T12:07:14.651Z,33.00
2016-08-20T12:08:15.340Z,32.00
2016-08-20T12:09:15.779Z,31.00
2016-08-20T12:10:16.267Z,32.00
2016-08-20T12:11:16.809Z,34.00
2016-08-20T12:12:17.348Z,35.00
2016-08-20T12:13:17.888Z,41.00
2016-08-20T12:14:18.576Z,42.00
2016-08-20T12:15:18.973Z,37.00
2016-08-20T12:16:19.509Z,31.00
2016-08-20T12:17:20.056Z,29.00
2016-08-20T12:18:20.597Z,29.00
2016-08-20T12:19:21.167Z,31.00
2016-08-20T12:20:21.675Z,36.00
2016-08-20T12:21:22.246Z,39.00
2016-08-20T12:22:22.759Z,32.00
2016-08-20T12:23:23.296Z,33.00
2016-08-20T12:24:23.841Z,40.00
2016-08-20T12:25:24.382Z,39.00
2016-08-20T12:26:25.068Z,39.00
2016-08-20T12:27:25.454Z,35.00
2016-08-20T12:28:26.164Z,33.00
2016-08-20T12:29:26.542Z,32.00
2016-08-20T12:30:27.225Z,32.00
2016-08-20T12:31:27.616Z,33.00
2016-08-20T12:32:28.153Z,34.00
2016-08-20T12:33:28.699Z,37.00
2016-08-20T12:34:29.415Z,36.00
2016-08-20T12:35:29.924Z,39.00
2016-08-20T12:36:30.465Z,36.00
2016-08-20T12:37:30.852Z,32.00
2016-08-20T12:38:31.427Z,31.00
2016-08-20T12:39:31.932Z,30.00
2016-08-20T12:40:32.474Z,29.00
2016-08-20T12:41:33.011Z,38.00
2016-08-20T12:42:33.713Z,39.00
2016-08-20T12:43:34.118Z,29.00
2016-08-20T12:44:34.635Z,31.00
2016-08-20T12:45:35.170Z,29.00
2016-08-20T12:46:35.721Z,36.00
2016-08-20T12:47:36.403Z,34.00
2016-08-20T12:48:36.803Z,35.00
2016-08-20T12:49:37.334Z,36.00
2016-08-20T12:50:37.872Z,25.00
2016-08-20T12:51:38.564Z,26.00
2016-08-20T12:52:38.956Z,28.00
2016-08-20T12:53:41.454Z,29.00
2016-08-20T12:54:40.036Z,28.00
2016-08-20T12:55:40.579Z,27.00
2016-08-20T12:56:41.120Z,27.00
2016-08-20T12:57:41.655Z,28.00
2016-08-20T12:58:42.199Z,29.00
2016-08-20T12:59:42.741Z,29.00
2016-08-20T13:00:43.282Z,30.00
2016-08-20T13:01:43.822Z,29.00
2016-08-20T13:02:44.358Z,27.00
2016-08-20T13:03:44.899Z,26.00
2016-08-20T13:04:45.437Z,25.00
2016-08-20T13:05:45.984Z,23.00
2016-08-20T13:06:46.665Z,23.00
2016-08-20T13:07:47.207Z,23.00
2016-08-20T13:08:47.599Z,21.00
2016-08-20T13:09:48.141Z,19.00
2016-08-20T13:10:48.679Z,16.00
2016-08-20T13:11:50.114Z,15.00
2016-08-20T13:12:49.903Z,15.00
2016-08-20T13:13:50.295Z,16.00